Time;durP1;ratioP1;P1;durP2;ratioP2;P2;SDS_P1;SDS_P2;PMS_P1;PMS_P2;Temp;Humidity;BMP_temperature;BMP_pressure;BME280_temperature;BME280_humidity;BME280_pressure;Samples;Min_cycle;Max_cycle;Signal;HPM_P1;HPM_P2
2023/06/09 00:01:24;;;;;;;10.73;8.85;;;;;;;18.72;64.99;98789.84;5005972;28;20318;-80
2023/06/09 00:03:51;;;;;;;9.55;8.55;;;;;;;18.66;65.00;98778.31;5007687;28;20053;-80
2023/06/09 00:06:22;;;;;;;11.15;9.40;;;;;;;18.50;65.28;98767.03;4990569;28;20037;-80
2023/06/09 00:08:50;;;;;;;9.82;8.93;;;;;;;18.36;65.66;98768.13;5008919;28;20482;-79
2023/06/09 00:11:16;;;;;;;10.27;8.90;;;;;;;18.46;65.66;98773.34;5004202;28;20064;-79
2023/06/09 00:13:42;;;;;;;15.23;9.60;;;;;;;18.33;65.95;98774.09;5006258;28;20482;-79
2023/06/09 00:16:07;;;;;;;11.40;10.20;;;;;;;18.17;66.24;98770.13;4989178;28;20037;-79
2023/06/09 00:18:34;;;;;;;12.48;9.93;;;;;;;18.17;66.54;98772.81;5004656;28;20033;-79
2023/06/09 00:21:00;;;;;;;11.50;9.73;;;;;;;18.13;66.16;98766.41;5006713;28;20038;-79
2023/06/09 00:23:28;;;;;;;12.40;10.23;;;;;;;18.16;66.86;98766.59;5006971;28;20095;-79
2023/06/09 00:25:54;;;;;;;14.95;9.95;;;;;;;18.16;66.46;98758.50;5007724;28;20033;-79
2023/06/09 00:28:19;;;;;;;14.65;9.93;;;;;;;18.20;66.45;98766.78;5002031;28;20113;-79
2023/06/09 00:30:44;;;;;;;10.15;9.25;;;;;;;18.04;66.85;98755.50;5010197;28;20470;-79
2023/06/09 00:33:10;;;;;;;9.90;8.90;;;;;;;18.04;67.22;98760.91;4996041;28;20132;-79
2023/06/09 00:35:35;;;;;;;11.02;9.93;;;;;;;17.96;67.51;98761.56;4999365;28;20057;-79
2023/06/09 00:38:01;;;;;;;12.20;10.63;;;;;;;18.03;67.48;98761.19;5007302;28;20457;-80
2023/06/09 00:40:27;;;;;;;12.93;11.68;;;;;;;18.12;67.17;98768.31;4988800;28;20034;-79
2023/06/09 00:42:52;;;;;;;11.25;10.00;;;;;;;18.08;66.81;98755.69;5004833;28;20038;-80
2023/06/09 00:45:18;;;;;;;11.60;10.00;;;;;;;18.13;66.86;98764.50;5007216;28;20108;-80
2023/06/09 00:47:44;;;;;;;10.40;9.25;;;;;;;18.11;66.93;98760.50;4988642;28;20041;-80
2023/06/09 00:50:12;;;;;;;11.38;9.55;;;;;;;17.55;67.74;98745.31;5005725;28;20036;-79
2023/06/09 00:52:38;;;;;;;11.85;9.32;;;;;;;18.04;66.92;98770.91;5006214;28;20473;-79
2023/06/09 00:55:04;;;;;;;11.95;9.90;;;;;;;18.10;66.84;98757.00;5007802;28;20164;-79
2023/06/09 00:57:33;;;;;;;13.20;10.45;;;;;;;18.12;66.84;98764.78;4969490;28;20113;-79
2023/06/09 00:59:59;;;;;;;11.23;10.10;;;;;;;18.00;66.95;98764.50;5018254;28;20041;-79
2023/06/09 01:02:24;;;;;;;12.95;10.48;;;;;;;18.07;67.02;98773.00;5007016;28;20398;-79
2023/06/09 01:04:50;;;;;;;11.02;9.77;;;;;;;17.89;66.99;98771.97;5003443;28;20750;-79
2023/06/09 01:07:28;;;;;;;10.30;9.27;;;;;;;17.92;66.96;98768.69;5006304;28;20089;-79
2023/06/09 01:10:09;;;;;;;11.93;9.82;;;;;;;17.92;67.25;98774.06;5004321;28;20120;-79
2023/06/09 01:12:58;;;;;;;11.20;9.38;;;;;;;17.76;66.67;98754.66;5004430;28;20040;-79
2023/06/09 01:15:28;;;;;;;10.90;9.38;;;;;;;17.69;67.30;98762.31;5002216;28;20030;-79
2023/06/09 01:17:56;;;;;;;10.70;9.60;;;;;;;17.58;67.02;98747.41;5020163;28;20101;-80
2023/06/09 01:20:48;;;;;;;11.57;9.48;;;;;;;17.76;67.26;98765.44;4990410;28;20045;-79
2023/06/09 01:23:25;;;;;;;13.05;9.52;;;;;;;17.60;67.21;98766.81;5009739;28;20049;-79
2023/06/09 01:25:52;;;;;;;11.05;9.88;;;;;;;17.60;67.36;98764.13;5007622;28;20026;-79
2023/06/09 01:28:23;;;;;;;11.88;9.40;;;;;;;17.61;67.18;98763.00;4987952;28;20097;-79
2023/06/09 01:30:51;;;;;;;10.55;9.38;;;;;;;17.53;66.97;98757.50;5004925;28;20112;-79
2023/06/09 01:33:20;;;;;;;10.90;9.73;;;;;;;17.54;66.89;98762.59;5005491;28;20048;-79
2023/06/09 01:35:47;;;;;;;14.85;9.63;;;;;;;17.48;66.99;98752.13;4997468;28;20533;-79
2023/06/09 01:38:14;;;;;;;11.18;10.07;;;;;;;17.45;66.99;98753.53;5005853;28;20072;-78
2023/06/09 01:40:40;;;;;;;14.90;10.30;;;;;;;17.43;67.08;98763.81;5003815;28;20076;-78
2023/06/09 01:43:06;;;;;;;10.73;9.50;;;;;;;17.29;67.32;98754.06;5012165;28;20064;-79
2023/06/09 01:45:32;;;;;;;11.20;10.00;;;;;;;17.29;67.44;98760.28;4988771;28;20030;-78
2023/06/09 01:47:58;;;;;;;12.55;10.68;;;;;;;17.31;67.08;98763.47;5008252;28;20046;-78
2023/06/09 01:50:37;;;;;;;11.50;10.10;;;;;;;17.37;66.91;98764.19;5004743;28;20040;-78
2023/06/09 01:53:09;;;;;;;11.38;10.20;;;;;;;17.35;67.45;98755.59;5007542;28;20046;-79
2023/06/09 01:55:42;;;;;;;12.02;9.65;;;;;;;17.26;67.61;98766.25;5004875;28;20393;-79
2023/06/09 01:58:17;;;;;;;18.88;11.20;;;;;;;17.23;67.79;98751.44;5006561;28;20061;-78
2023/06/09 02:00:46;;;;;;;10.70;9.20;;;;;;;17.25;67.69;98745.78;5019650;28;20050;-78
2023/06/09 02:03:13;;;;;;;11.02;9.75;;;;;;;17.31;67.20;98752.69;5003511;28;20025;-79
2023/06/09 02:05:42;;;;;;;11.73;10.20;;;;;;;17.17;67.76;98741.03;5004831;28;20038;-79
2023/06/09 02:08:09;;;;;;;11.95;10.52;;;;;;;16.73;69.36;98749.50;5007096;28;20030;-79
2023/06/09 02:10:35;;;;;;;10.77;9.35;;;;;;;16.96;68.32;98754.03;5007553;28;20536;-79
2023/06/09 02:13:21;;;;;;;10.90;9.80;;;;;;;16.90;68.87;98755.22;5006520;28;20092;-79
2023/06/09 02:15:47;;;;;;;11.35;10.15;;;;;;;16.96;67.87;98745.94;5006205;28;21092;-79
2023/06/09 02:18:13;;;;;;;11.10;9.85;;;;;;;17.03;67.90;98759.06;5008612;28;20042;-79
2023/06/09 02:20:40;;;;;;;11.13;9.85;;;;;;;16.98;68.16;98756.44;5005507;28;20053;-79
2023/06/09 02:23:06;;;;;;;11.43;10.23;;;;;;;17.08;68.35;98748.22;4987877;28;20030;-79
2023/06/09 02:25:32;;;;;;;11.65;10.15;;;;;;;17.08;67.88;98748.22;5010401;28;20024;-79
2023/06/09 02:28:01;;;;;;;10.48;9.50;;;;;;;16.92;68.45;98747.63;5012003;28;20092;-79
2023/06/09 02:30:27;;;;;;;12.30;10.48;;;;;;;16.75;68.63;98757.31;4990453;28;20030;-79
2023/06/09 02:32:53;;;;;;;13.15;10.60;;;;;;;16.74;69.11;98751.09;5007204;28;20052;-79
2023/06/09 02:35:18;;;;;;;12.68;11.38;;;;;;;16.75;69.19;98754.63;4991148;28;20026;-79
2023/06/09 02:37:44;;;;;;;12.32;10.20;;;;;;;16.78;68.67;98760.22;4973047;28;20060;-79
2023/06/09 02:40:10;;;;;;;11.65;9.63;;;;;;;16.64;69.34;98755.84;4990290;28;20029;-79
2023/06/09 02:42:35;;;;;;;12.32;11.02;;;;;;;16.73;69.13;98754.88;5008407;28;20038;-79
2023/06/09 02:45:01;;;;;;;12.75;11.32;;;;;;;16.73;68.98;98756.81;5007012;28;20044;-79
2023/06/09 02:47:26;;;;;;;13.60;9.85;;;;;;;16.82;68.56;98755.06;4976998;28;20103;-79
2023/06/09 02:49:52;;;;;;;12.27;10.82;;;;;;;16.71;68.96;98751.69;5007503;28;20037;-79
2023/06/09 02:52:17;;;;;;;13.05;10.52;;;;;;;16.87;68.71;98761.16;5007562;28;20053;-79
2023/06/09 02:54:43;;;;;;;12.90;11.02;;;;;;;16.73;68.91;98759.50;5007639;28;20026;-79
2023/06/09 02:57:09;;;;;;;11.40;9.98;;;;;;;16.64;68.96;98753.94;5003099;28;20033;-79
2023/06/09 02:59:34;;;;;;;13.30;9.40;;;;;;;16.62;68.99;98756.09;5007602;28;20030;-79
2023/06/09 03:02:00;;;;;;;11.93;9.73;;;;;;;16.63;69.21;98749.63;4990405;28;20379;-79
2023/06/09 03:04:25;;;;;;;10.25;9.35;;;;;;;16.66;69.10;98762.53;4990035;28;20442;-79
2023/06/09 03:06:53;;;;;;;10.95;9.95;;;;;;;16.58;69.22;98759.69;5002903;28;20037;-80
2023/06/09 03:09:19;;;;;;;11.30;10.00;;;;;;;16.52;68.96;98758.94;5006364;28;20033;-79
2023/06/09 03:11:44;;;;;;;10.77;9.15;;;;;;;16.59;69.16;98755.91;5004527;28;20029;-79
2023/06/09 03:14:10;;;;;;;13.15;9.48;;;;;;;16.66;68.97;98753.66;5002143;28;20021;-79
2023/06/09 03:16:35;;;;;;;10.95;8.98;;;;;;;16.62;68.53;98763.41;4969490;28;20033;-79
2023/06/09 03:19:01;;;;;;;11.35;10.15;;;;;;;16.58;68.26;98748.91;5003536;28;20037;-79
2023/06/09 03:21:26;;;;;;;12.10;9.63;;;;;;;16.54;68.43;98764.03;5006259;28;20038;-79
2023/06/09 03:23:52;;;;;;;9.80;8.80;;;;;;;16.38;69.50;98769.59;5008473;28;21761;-79
2023/06/09 03:26:20;;;;;;;12.60;9.48;;;;;;;16.40;69.09;98766.63;5006494;28;20080;-79
2023/06/09 03:28:46;;;;;;;12.27;10.50;;;;;;;16.40;69.40;98769.31;5009981;28;20111;-79
2023/06/09 03:31:13;;;;;;;11.38;9.55;;;;;;;16.49;68.94;98776.44;5007149;28;20109;-79
2023/06/09 03:33:38;;;;;;;10.25;9.15;;;;;;;16.39;68.98;98773.91;5008743;28;20506;-79
2023/06/09 03:36:04;;;;;;;10.73;9.63;;;;;;;16.35;69.40;98780.94;5007224;28;20053;-79
2023/06/09 03:38:30;;;;;;;14.48;11.35;;;;;;;16.41;69.19;98793.25;4991401;28;20129;-79
2023/06/09 03:40:55;;;;;;;11.90;9.57;;;;;;;15.86;70.72;98783.06;5008282;28;20105;-79
2023/06/09 03:43:20;;;;;;;9.68;8.52;;;;;;;16.33;69.60;98785.81;4990406;28;20552;-79
2023/06/09 03:45:46;;;;;;;10.75;9.68;;;;;;;16.33;69.22;98785.81;5005446;28;20030;-79
2023/06/09 03:48:11;;;;;;;10.25;9.15;;;;;;;16.41;69.05;98781.69;5005499;28;20029;-79
2023/06/09 03:50:37;;;;;;;10.32;9.32;;;;;;;16.40;68.99;98791.66;4992048;28;20073;-79
2023/06/09 03:53:02;;;;;;;10.98;9.30;;;;;;;16.43;69.03;98783.00;5006582;28;20515;-79
2023/06/09 03:55:29;;;;;;;17.83;10.38;;;;;;;16.38;69.33;98772.28;5024562;28;21655;-79
2023/06/09 03:57:55;;;;;;;12.38;9.20;;;;;;;16.38;69.38;98776.88;5022504;28;20037;-79
2023/06/09 04:00:21;;;;;;;10.15;9.13;;;;;;;16.32;69.74;98791.47;5003549;28;20037;-79
2023/06/09 04:02:47;;;;;;;9.73;8.40;;;;;;;16.32;69.28;98784.22;5004827;28;20042;-79
2023/06/09 04:05:12;;;;;;;11.02;8.85;;;;;;;16.37;69.33;98786.84;5007398;28;20049;-79
2023/06/09 04:07:38;;;;;;;9.90;8.50;;;;;;;16.37;69.66;98786.03;4986120;28;20042;-79
2023/06/09 04:10:03;;;;;;;11.77;9.10;;;;;;;16.45;70.03;98790.78;5004962;28;20022;-78
2023/06/09 04:12:30;;;;;;;15.75;9.75;;;;;;;16.44;69.50;98781.94;5005534;28;20399;-79
2023/06/09 04:14:55;;;;;;;11.15;10.05;;;;;;;16.36;70.36;98777.16;5005655;28;20049;-78
2023/06/09 04:17:22;;;;;;;12.82;9.38;;;;;;;16.44;70.10;98790.00;5006877;28;20466;-79
2023/06/09 04:19:48;;;;;;;10.10;9.10;;;;;;;16.32;70.71;98769.94;4998396;28;20084;-79
2023/06/09 04:22:13;;;;;;;12.30;10.93;;;;;;;15.74;73.63;98783.47;5001985;28;20053;-78
2023/06/09 04:24:39;;;;;;;11.35;9.23;;;;;;;16.33;70.76;98791.22;5007180;28;20033;-78
2023/06/09 04:27:04;;;;;;;13.95;9.70;;;;;;;16.53;70.95;98786.69;5004809;28;20030;-79
2023/06/09 04:29:33;;;;;;;14.15;10.07;;;;;;;16.75;70.57;98789.66;5000973;28;20033;-79
2023/06/09 04:31:59;;;;;;;10.52;9.25;;;;;;;16.91;70.03;98788.34;4997088;28;20039;-79
2023/06/09 04:34:28;;;;;;;13.93;10.23;;;;;;;16.96;69.81;98783.69;4968725;28;20038;-80
2023/06/09 04:36:56;;;;;;;12.35;10.00;;;;;;;16.97;70.01;98787.19;5005293;28;20112;-79
2023/06/09 04:39:24;;;;;;;12.77;10.95;;;;;;;17.00;70.25;98784.72;5002345;28;20105;-79
2023/06/09 04:41:52;;;;;;;13.35;10.88;;;;;;;17.23;70.09;98789.22;5008283;28;20109;-79
2023/06/09 04:44:18;;;;;;;15.77;11.75;;;;;;;17.01;72.82;98786.34;5011173;28;20030;-80
2023/06/09 04:46:43;;;;;;;12.57;11.27;;;;;;;17.12;70.91;98792.38;4991789;28;20049;-79
2023/06/09 04:49:09;;;;;;;15.50;13.85;;;;;;;16.80;74.49;98786.88;5004604;28;20101;-79
2023/06/09 04:51:49;;;;;;;14.15;12.30;;;;;;;16.88;75.52;98792.44;4986984;28;20129;-80
2023/06/09 04:54:16;;;;;;;16.13;13.70;;;;;;;16.91;74.81;98780.25;5004612;28;20033;-79
2023/06/09 04:56:43;;;;;;;12.18;10.95;;;;;;;17.18;72.07;98789.31;5003498;28;20033;-80
2023/06/09 04:59:10;;;;;;;16.95;13.25;;;;;;;16.97;75.30;98792.59;5001905;28;20053;-79
2023/06/09 05:01:37;;;;;;;15.85;13.95;;;;;;;16.92;74.67;98787.25;5006640;28;20064;-79
2023/06/09 05:04:02;;;;;;;15.75;13.57;;;;;;;17.02;74.05;98792.50;5000897;28;20046;-79
2023/06/09 05:06:28;;;;;;;14.25;12.68;;;;;;;17.05;75.02;98792.75;5007780;28;20041;-79
2023/06/09 05:08:55;;;;;;;15.48;13.95;;;;;;;17.00;74.15;98786.59;5006073;28;20060;-81
2023/06/09 05:11:20;;;;;;;14.73;13.25;;;;;;;17.05;74.80;98792.75;5012764;28;20030;-81
2023/06/09 05:13:46;;;;;;;18.13;14.23;;;;;;;16.91;75.65;98799.94;5008526;28;20045;-80
2023/06/09 05:16:12;;;;;;;15.13;12.90;;;;;;;17.02;73.96;98792.50;4991335;28;20068;-81
2023/06/09 05:18:37;;;;;;;15.13;13.32;;;;;;;16.72;75.87;98795.63;5005687;28;20053;-81
2023/06/09 05:21:03;;;;;;;15.70;14.05;;;;;;;16.54;76.07;98781.00;5009400;28;20032;-79
2023/06/09 05:23:28;;;;;;;17.35;15.60;;;;;;;16.54;76.44;98789.09;5009160;28;20038;-80
2023/06/09 05:25:54;;;;;;;22.23;16.45;;;;;;;16.35;77.52;98799.81;5005616;28;20037;-79
2023/06/09 05:28:19;;;;;;;22.45;16.38;;;;;;;16.51;77.01;98803.16;5007161;28;20065;-80
2023/06/09 05:30:45;;;;;;;17.83;16.02;;;;;;;16.40;77.22;98797.03;4992950;28;20037;-80
2023/06/09 05:33:10;;;;;;;18.90;15.75;;;;;;;16.44;78.35;98798.09;4991555;28;20084;-80
2023/06/09 05:35:36;;;;;;;16.98;14.98;;;;;;;16.66;77.37;98794.06;4998549;28;20053;-80
2023/06/09 05:38:01;;;;;;;18.00;16.10;;;;;;;16.49;77.37;98789.94;5012376;28;20501;-80
2023/06/09 05:40:27;;;;;;;16.88;13.73;;;;;;;16.65;76.92;98805.94;4997469;28;20026;-80
2023/06/09 05:42:52;;;;;;;18.95;16.83;;;;;;;16.68;78.53;98808.06;4996751;28;20038;-80
2023/06/09 05:45:17;;;;;;;18.25;14.25;;;;;;;16.77;77.64;98812.53;5012857;28;20033;-80
2023/06/09 05:47:43;;;;;;;17.80;15.77;;;;;;;16.86;77.79;98804.59;5014225;28;20021;-81
2023/06/09 05:50:09;;;;;;;16.83;15.07;;;;;;;16.95;78.64;98810.97;5009803;28;20209;-81
2023/06/09 05:52:35;;;;;;;21.83;15.55;;;;;;;16.87;78.32;98806.19;5015039;28;20029;-80
2023/06/09 05:55:01;;;;;;;22.38;16.58;;;;;;;17.19;78.12;98819.75;5001875;28;20041;-80
2023/06/09 05:57:29;;;;;;;19.27;16.80;;;;;;;17.02;76.84;98806.78;5014908;28;20124;-80
2023/06/09 05:59:56;;;;;;;20.13;15.68;;;;;;;16.93;77.30;98810.41;5008277;28;20044;-80
2023/06/09 06:02:21;;;;;;;22.23;16.58;;;;;;;17.34;76.46;98810.66;5010043;28;20399;-80
2023/06/09 06:04:47;;;;;;;19.77;17.70;;;;;;;17.24;76.77;98814.31;4993084;28;20133;-80
2023/06/09 06:07:14;;;;;;;19.10;17.08;;;;;;;17.19;77.06;98800.88;5014090;28;20034;-80
2023/06/09 06:09:39;;;;;;;16.23;10.98;;;;;;;17.33;76.54;98819.84;5012727;28;20401;-80
2023/06/09 06:12:06;;;;;;;17.35;15.30;;;;;;;17.52;75.79;98816.06;5010630;28;20037;-80
2023/06/09 06:14:31;;;;;;;15.30;13.80;;;;;;;17.53;76.44;98804.19;5019233;28;20045;-80
2023/06/09 06:16:57;;;;;;;16.33;14.63;;;;;;;17.48;76.40;98819.59;5012482;28;20083;-80
2023/06/09 06:19:22;;;;;;;18.65;14.55;;;;;;;17.87;75.01;98823.56;5012779;28;20029;-80
2023/06/09 06:21:48;;;;;;;13.10;11.68;;;;;;;17.77;73.00;98826.47;4995167;28;20120;-81
2023/06/09 06:24:14;;;;;;;11.75;9.60;;;;;;;18.54;69.98;98829.41;5011451;28;20095;-81
2023/06/09 06:26:39;;;;;;;19.83;14.38;;;;;;;17.98;74.97;98822.31;5014073;28;20030;-80
2023/06/09 06:29:05;;;;;;;14.43;12.98;;;;;;;18.11;73.62;98825.34;5000941;28;20038;-80
2023/06/09 06:31:30;;;;;;;14.35;12.95;;;;;;;18.25;74.60;98832.38;5018761;28;20081;-80
2023/06/09 06:33:57;;;;;;;15.38;13.82;;;;;;;18.21;74.25;98830.56;4998465;28;20037;-80
2023/06/09 06:36:24;;;;;;;17.17;12.85;;;;;;;18.51;73.76;98833.50;5014114;28;20108;-81
2023/06/09 06:38:49;;;;;;;15.80;13.52;;;;;;;18.31;73.10;98828.47;5003478;28;20025;-80
2023/06/09 06:41:14;;;;;;;16.58;12.38;;;;;;;18.27;74.26;98818.53;5010149;28;20072;-79
2023/06/09 06:43:43;;;;;;;16.77;12.25;;;;;;;18.24;72.86;98825.34;4995573;28;20030;-80
2023/06/09 06:46:12;;;;;;;14.73;13.10;;;;;;;17.95;73.26;98836.38;4993161;28;20090;-79
2023/06/09 06:48:38;;;;;;;20.35;14.73;;;;;;;18.13;73.11;98831.25;5015562;28;20033;-80
2023/06/09 06:51:06;;;;;;;14.57;13.02;;;;;;;18.29;73.57;98829.84;5009739;28;20061;-79
2023/06/09 06:53:33;;;;;;;13.32;11.80;;;;;;;18.25;71.44;98831.56;4991217;28;20366;-80
2023/06/09 06:55:59;;;;;;;21.30;11.15;;;;;;;18.45;71.83;98823.09;5004596;28;20506;-79
2023/06/09 06:58:27;;;;;;;11.27;9.48;;;;;;;18.97;70.12;98832.56;4995513;28;20060;-79
2023/06/09 07:00:53;;;;;;;12.43;11.13;;;;;;;18.46;72.21;98836.31;5000558;28;20041;-80
2023/06/09 07:03:20;;;;;;;14.38;11.52;;;;;;;18.65;71.62;98830.81;5011623;28;20125;-80
2023/06/09 07:05:45;;;;;;;11.48;10.35;;;;;;;18.64;70.42;98830.00;5028012;28;20120;-79
2023/06/09 07:08:11;;;;;;;17.77;11.45;;;;;;;18.91;72.21;98834.59;5005051;28;20116;-79
2023/06/09 07:10:36;;;;;;;12.63;11.18;;;;;;;19.10;69.72;98842.56;5008077;28;20092;-79
2023/06/09 07:13:02;;;;;;;18.38;11.27;;;;;;;18.98;69.12;98834.97;4988343;28;20046;-80
2023/06/09 07:15:27;;;;;;;13.48;11.80;;;;;;;18.63;69.81;98836.50;4985654;28;20046;-80
2023/06/09 07:17:52;;;;;;;14.55;11.15;;;;;;;18.79;70.34;98839.72;5008295;28;20060;-80
2023/06/09 07:20:18;;;;;;;13.70;11.35;;;;;;;18.88;69.81;98827.09;5003230;28;20035;-80
2023/06/09 07:22:46;;;;;;;12.48;11.07;;;;;;;19.06;69.82;98839.69;4989794;28;20045;-80
2023/06/09 07:25:12;;;;;;;18.98;11.43;;;;;;;19.13;69.72;98828.44;5010376;28;20053;-79
2023/06/09 07:27:37;;;;;;;16.77;11.52;;;;;;;18.93;69.58;98837.81;5010397;28;20072;-80
2023/06/09 07:30:03;;;;;;;20.00;12.80;;;;;;;18.97;69.57;98838.78;4996080;28;20366;-80
2023/06/09 07:32:29;;;;;;;11.18;9.93;;;;;;;19.45;69.37;98839.09;5023251;28;20052;-81
2023/06/09 07:34:57;;;;;;;15.75;10.60;;;;;;;19.44;70.11;98837.50;5006113;28;20652;-80
2023/06/09 07:37:23;;;;;;;17.65;11.23;;;;;;;19.27;68.96;98835.41;5004354;28;20041;-80
2023/06/09 07:39:48;;;;;;;12.75;11.35;;;;;;;19.81;68.74;98837.13;4993232;28;20561;-80
2023/06/09 07:42:14;;;;;;;19.80;11.60;;;;;;;19.70;67.88;98832.28;5006377;28;20025;-80
2023/06/09 07:44:40;;;;;;;12.68;10.50;;;;;;;19.84;67.24;98843.84;5018725;28;20029;-80
2023/06/09 07:47:05;;;;;;;12.88;10.55;;;;;;;20.08;67.18;98844.31;5002411;28;20033;-80
2023/06/09 07:49:31;;;;;;;12.10;10.80;;;;;;;19.95;66.27;98839.78;5012719;28;20087;-80
2023/06/09 07:51:56;;;;;;;13.18;10.70;;;;;;;20.15;66.13;98840.06;5004718;28;20033;-80
2023/06/09 07:54:21;;;;;;;14.77;10.40;;;;;;;20.04;65.74;98836.03;5017072;28;20498;-80
2023/06/09 07:56:49;;;;;;;15.43;10.25;;;;;;;19.71;65.08;98831.97;5011936;28;20428;-79
2023/06/09 07:59:16;;;;;;;15.63;10.15;;;;;;;20.18;64.93;98831.31;4996863;28;20101;-80
2023/06/09 08:01:43;;;;;;;12.93;9.50;;;;;;;20.19;67.46;98835.63;5001838;28;20482;-80
2023/06/09 08:04:08;;;;;;;9.32;8.40;;;;;;;20.50;66.22;98824.78;5004632;28;20033;-80
2023/06/09 08:06:34;;;;;;;19.05;11.50;;;;;;;20.35;66.66;98833.34;5005507;28;20400;-80
2023/06/09 08:09:04;;;;;;;12.98;10.50;;;;;;;20.20;65.30;98839.13;4989266;28;20516;-80
2023/06/09 08:11:31;;;;;;;11.02;8.52;;;;;;;20.87;65.57;98829.69;5002995;28;20046;-80
2023/06/09 08:13:56;;;;;;;13.77;9.18;;;;;;;21.09;64.14;98836.94;4994452;28;20034;-80
2023/06/09 08:16:22;;;;;;;16.02;10.25;;;;;;;20.76;63.69;98836.53;5010316;28;20029;-80
2023/06/09 08:18:47;;;;;;;15.85;9.30;;;;;;;20.96;64.32;98840.56;5000294;28;20037;-80
2023/06/09 08:21:12;;;;;;;14.45;11.32;;;;;;;20.72;64.73;98832.03;4991357;28;20033;-80
2023/06/09 08:23:43;;;;;;;10.63;9.15;;;;;;;21.08;64.33;98829.91;5004535;28;20034;-80
2023/06/09 08:26:08;;;;;;;15.38;9.75;;;;;;;20.85;63.39;98831.94;5017523;28;20079;-80
2023/06/09 08:28:33;;;;;;;11.80;10.25;;;;;;;21.09;65.04;98844.28;4991784;28;20390;-80
2023/06/09 08:30:59;;;;;;;9.57;8.57;;;;;;;21.32;64.30;98837.59;4999564;28;20453;-80
2023/06/09 08:33:26;;;;;;;11.18;9.90;;;;;;;21.30;63.71;98846.06;5007478;28;20053;-80
2023/06/09 08:35:51;;;;;;;12.80;9.05;;;;;;;21.54;64.66;98832.81;5011028;28;20036;-81
2023/06/09 08:38:16;;;;;;;12.07;9.70;;;;;;;21.61;63.07;98835.84;5009794;28;20120;-80
2023/06/09 08:40:42;;;;;;;8.75;7.85;;;;;;;21.55;62.71;98831.72;4993470;28;20053;-80
2023/06/09 08:43:07;;;;;;;11.00;9.15;;;;;;;21.60;60.56;98811.75;4992473;28;20080;-80
2023/06/09 08:45:34;;;;;;;11.27;8.88;;;;;;;21.72;59.12;98824.66;5009102;28;20037;-81
2023/06/09 08:48:01;;;;;;;12.00;8.68;;;;;;;21.71;58.49;98823.06;4977294;28;20053;-80
2023/06/09 08:50:28;;;;;;;13.50;9.35;;;;;;;22.11;60.24;98819.81;5009562;28;20469;-80
2023/06/09 08:52:55;;;;;;;9.55;8.23;;;;;;;21.92;57.03;98818.56;4991737;28;20038;-80
2023/06/09 08:55:21;;;;;;;8.35;7.53;;;;;;;22.44;59.26;98817.28;4996716;28;20044;-79
2023/06/09 08:57:47;;;;;;;19.05;9.00;;;;;;;22.32;58.04;98820.69;4988954;28;20482;-80
2023/06/09 09:00:15;;;;;;;10.50;8.85;;;;;;;22.41;57.27;98809.78;4991866;28;20048;-80
2023/06/09 09:02:41;;;;;;;8.73;7.93;;;;;;;22.56;54.30;98819.34;4976719;28;20121;-80
2023/06/09 09:05:06;;;;;;;8.95;7.78;;;;;;;22.78;55.87;98813.66;5009660;28;20082;-80
2023/06/09 09:07:32;;;;;;;10.02;7.40;;;;;;;22.49;54.20;98810.88;5006610;28;20109;-80
2023/06/09 09:09:58;;;;;;;9.35;7.57;;;;;;;22.55;54.03;98807.66;4975306;28;20110;-80
2023/06/09 09:12:24;;;;;;;9.45;7.40;;;;;;;22.62;53.00;98805.25;5008694;28;20029;-80
2023/06/09 09:14:49;;;;;;;8.48;7.60;;;;;;;22.65;53.89;98806.53;5011535;28;20391;-80
2023/06/09 09:17:15;;;;;;;10.32;8.15;;;;;;;22.68;53.64;98814.00;5010568;28;20045;-79
2023/06/09 09:19:45;;;;;;;10.30;7.35;;;;;;;22.74;54.03;98815.41;5015257;28;20018;-80
2023/06/09 09:22:11;;;;;;;10.15;8.63;;;;;;;23.05;55.50;98813.94;5016497;28;20044;-80
2023/06/09 09:24:41;;;;;;;9.90;8.55;;;;;;;22.99;54.92;98809.84;5017655;28;20030;-81
2023/06/09 09:27:18;;;;;;;12.60;8.23;;;;;;;23.01;54.66;98810.31;5012958;28;20053;-81
2023/06/09 09:29:44;;;;;;;13.88;7.43;;;;;;;22.90;53.62;98798.19;5012769;28;20034;-81
2023/06/09 09:32:09;;;;;;;9.68;7.25;;;;;;;23.23;52.72;98809.19;5013399;28;20109;-81
2023/06/09 09:34:35;;;;;;;9.90;7.20;;;;;;;23.45;52.79;98813.53;5018851;28;20033;-80
2023/06/09 09:37:01;;;;;;;9.30;7.00;;;;;;;23.49;53.44;98817.16;5014485;28;20121;-80
2023/06/09 09:39:27;;;;;;;8.98;7.13;;;;;;;23.57;51.09;98792.56;5013683;28;20030;-80
2023/06/09 09:42:07;;;;;;;9.07;7.13;;;;;;;23.72;50.57;98811.03;5014690;28;20238;-80
2023/06/09 09:44:39;;;;;;;14.10;7.10;;;;;;;23.85;50.31;98809.94;5011822;28;20117;-79
2023/06/09 09:47:08;;;;;;;11.30;7.47;;;;;;;23.78;50.66;98811.63;5009232;28;20103;-81
2023/06/09 09:49:34;;;;;;;7.85;6.30;;;;;;;23.89;50.02;98801.91;5017567;28;20385;-81
2023/06/09 09:52:00;;;;;;;14.30;6.88;;;;;;;23.97;50.58;98800.19;5013806;28;20117;-81
2023/06/09 09:54:28;;;;;;;7.57;6.15;;;;;;;24.25;51.11;98804.72;5014976;28;20037;-81
2023/06/09 09:56:57;;;;;;;13.00;7.25;;;;;;;24.23;49.29;98803.47;4982389;28;20485;-81
2023/06/09 09:59:24;;;;;;;7.47;6.78;;;;;;;23.99;50.75;98792.47;5010014;28;20032;-81
2023/06/09 10:01:53;;;;;;;10.18;7.03;;;;;;;24.51;50.05;98788.03;4992956;28;20026;-81
2023/06/09 10:04:23;;;;;;;7.40;6.55;;;;;;;24.41;48.84;98794.75;4995766;28;20040;-80
2023/06/09 10:06:58;;;;;;;10.82;7.10;;;;;;;24.19;49.26;98788.91;5012216;28;20120;-81
2023/06/09 10:09:24;;;;;;;14.13;7.20;;;;;;;24.44;50.88;98779.63;4990375;28;20030;-80
2023/06/09 10:11:51;;;;;;;7.65;6.85;;;;;;;24.25;49.84;98779.38;5012620;28;20034;-81
2023/06/09 10:14:19;;;;;;;12.65;7.43;;;;;;;24.41;48.50;98788.47;5012995;28;20032;-81
2023/06/09 10:16:45;;;;;;;10.57;6.70;;;;;;;24.61;49.62;98784.06;5016680;28;20026;-80
2023/06/09 10:19:11;;;;;;;10.18;6.93;;;;;;;24.54;50.50;98776.44;5020495;28;20053;-80
2023/06/09 10:21:37;;;;;;;8.38;6.97;;;;;;;24.53;48.81;98777.56;5027528;28;20061;-81
2023/06/09 10:24:04;;;;;;;7.47;6.70;;;;;;;24.70;48.89;98771.88;5000227;28;20112;-81
2023/06/09 10:26:30;;;;;;;7.53;6.80;;;;;;;24.64;49.13;98769.72;5014152;28;20037;-80
2023/06/09 10:28:55;;;;;;;12.85;6.70;;;;;;;24.58;49.05;98777.34;5012325;28;20045;-80
2023/06/09 10:31:23;;;;;;;9.20;7.18;;;;;;;24.36;49.12;98767.66;5014168;28;20033;-81
2023/06/09 10:33:50;;;;;;;8.45;7.15;;;;;;;24.19;48.58;98767.91;4995358;28;20040;-80
2023/06/09 10:36:15;;;;;;;8.48;7.05;;;;;;;24.52;49.13;98778.72;4999780;28;20414;-80
2023/06/09 10:38:47;;;;;;;7.75;6.90;;;;;;;24.62;48.38;98786.44;4993337;28;20040;-80
2023/06/09 10:41:31;;;;;;;10.90;6.85;;;;;;;24.52;48.60;98765.88;5012269;28;20103;-80
2023/06/09 10:44:21;;;;;;;11.70;7.68;;;;;;;24.73;50.07;98781.31;5010880;28;20666;-80
2023/06/09 10:46:50;;;;;;;16.23;7.97;;;;;;;25.09;49.72;98759.44;5010110;28;20343;-80
2023/06/09 10:49:35;;;;;;;10.68;7.90;;;;;;;25.54;48.63;98772.84;5013220;28;20033;-80
2023/06/09 10:52:01;;;;;;;11.90;7.70;;;;;;;25.68;48.96;98754.13;5009693;28;20041;-81
2023/06/09 10:54:28;;;;;;;12.45;7.38;;;;;;;25.55;48.49;98767.06;5012769;28;20025;-80
2023/06/09 10:57:00;;;;;;;12.68;7.30;;;;;;;25.39;48.89;98757.16;5007236;28;20030;-80
2023/06/09 10:59:25;;;;;;;8.40;6.65;;;;;;;25.11;47.64;98757.97;5002527;28;20407;-80
2023/06/09 11:02:02;;;;;;;9.02;6.85;;;;;;;25.47;46.70;98762.50;5013541;28;20112;-80
2023/06/09 11:05:00;;;;;;;7.63;6.82;;;;;;;25.99;46.21;98760.41;5004519;28;20049;-80
2023/06/09 11:07:29;;;;;;;11.68;7.60;;;;;;;25.71;48.57;98756.13;5002386;28;20059;-80
2023/06/09 11:09:55;;;;;;;16.27;8.57;;;;;;;25.85;48.62;98764.72;5008661;28;20029;-81
2023/06/09 11:12:26;;;;;;;9.40;7.65;;;;;;;26.52;45.82;98767.25;5016946;28;20030;-80
2023/06/09 11:14:53;;;;;;;8.40;6.53;;;;;;;26.46;45.30;98746.78;5009633;28;20036;-80
2023/06/09 11:17:36;;;;;;;9.00;6.60;;;;;;;26.58;42.06;98751.34;5007795;28;20061;-79
2023/06/09 11:20:05;;;;;;;8.27;6.30;;;;;;;26.31;41.77;98752.25;5008121;28;20022;-80
2023/06/09 11:22:32;;;;;;;9.48;7.22;;;;;;;25.80;42.21;98751.31;5009837;28;20084;-80